sensor_id;sensor_type;location;lat;lon;timestamp;P1;P2;P0
65803;PMS5003;65658;63.740;34.316;2022-12-07T00:03:36;23;24;
65803;PMS5003;65658;63.740;34.316;2022-12-07T00:07:22;18;20;
65803;PMS5003;65658;63.740;34.316;2022-12-07T00:11:11;23;24;
65803;PMS5003;65658;63.740;34.316;2022-12-07T00:15:00;22;24;
65803;PMS5003;65658;63.740;34.316;2022-12-07T00:18:48;19;20;
65803;PMS5003;65658;63.740;34.316;2022-12-07T00:22:35;28;31;
65803;PMS5003;65658;63.740;34.316;2022-12-07T00:26:35;21;24;
65803;PMS5003;65658;63.740;34.316;2022-12-07T00:30:24;23;25;
65803;PMS5003;65658;63.740;34.316;2022-12-07T00:34:12;19;24;
65803;PMS5003;65658;63.740;34.316;2022-12-07T00:38:00;19;21;
65803;PMS5003;65658;63.740;34.316;2022-12-07T00:41:47;23;27;
65803;PMS5003;65658;63.740;34.316;2022-12-07T00:45:35;22;23;
65803;PMS5003;65658;63.740;34.316;2022-12-07T00:49:24;19;19;
65803;PMS5003;65658;63.740;34.316;2022-12-07T00:53:22;18;19;
65803;PMS5003;65658;63.740;34.316;2022-12-07T00:57:11;21;21;
65803;PMS5003;65658;63.740;34.316;2022-12-07T01:01:00;19;19;
65803;PMS5003;65658;63.740;34.316;2022-12-07T01:08:53;23;26;
65803;PMS5003;65658;63.740;34.316;2022-12-07T01:12:42;25;26;
65803;PMS5003;65658;63.740;34.316;2022-12-07T01:17:05;21;21;
65803;PMS5003;65658;63.740;34.316;2022-12-07T01:25:11;21;23;
65803;PMS5003;65658;63.740;34.316;2022-12-07T01:28:59;21;23;
65803;PMS5003;65658;63.740;34.316;2022-12-07T01:33:02;23;26;
65803;PMS5003;65658;63.740;34.316;2022-12-07T01:36:50;26;30;
65803;PMS5003;65658;63.740;34.316;2022-12-07T01:40:53;26;28;
65803;PMS5003;65658;63.740;34.316;2022-12-07T01:48:56;21;24;
65803;PMS5003;65658;63.740;34.316;2022-12-07T01:53:07;12;12;
65803;PMS5003;65658;63.740;34.316;2022-12-07T01:57:31;25;29;
65803;PMS5003;65658;63.740;34.316;2022-12-07T02:01:34;26;28;
65803;PMS5003;65658;63.740;34.316;2022-12-07T02:05:44;27;28;
65803;PMS5003;65658;63.740;34.316;2022-12-07T02:09:45;28;31;
65803;PMS5003;65658;63.740;34.316;2022-12-07T02:13:44;27;30;
65803;PMS5003;65658;63.740;34.316;2022-12-07T02:18:17;24;27;
65803;PMS5003;65658;63.740;34.316;2022-12-07T02:30:22;26;29;
65803;PMS5003;65658;63.740;34.316;2022-12-07T02:34:23;21;23;
65803;PMS5003;65658;63.740;34.316;2022-12-07T02:42:54;14;17;
65803;PMS5003;65658;63.740;34.316;2022-12-07T02:46:57;22;25;
65803;PMS5003;65658;63.740;34.316;2022-12-07T02:51:09;22;24;
65803;PMS5003;65658;63.740;34.316;2022-12-07T02:55:42;23;27;
65803;PMS5003;65658;63.740;34.316;2022-12-07T03:03:20;21;21;
65803;PMS5003;65658;63.740;34.316;2022-12-07T03:11:04;26;30;
65803;PMS5003;65658;63.740;34.316;2022-12-07T03:15:17;19;22;
65803;PMS5003;65658;63.740;34.316;2022-12-07T03:19:30;21;22;
65803;PMS5003;65658;63.740;34.316;2022-12-07T03:23:30;25;28;
65803;PMS5003;65658;63.740;34.316;2022-12-07T03:27:38;22;23;
65803;PMS5003;65658;63.740;34.316;2022-12-07T03:31:29;26;30;
65803;PMS5003;65658;63.740;34.316;2022-12-07T03:44:15;23;25;
65803;PMS5003;65658;63.740;34.316;2022-12-07T03:56:43;28;29;
65803;PMS5003;65658;63.740;34.316;2022-12-07T04:01:17;16;19;
65803;PMS5003;65658;63.740;34.316;2022-12-07T04:05:29;27;31;
65803;PMS5003;65658;63.740;34.316;2022-12-07T04:09:30;20;22;
65803;PMS5003;65658;63.740;34.316;2022-12-07T04:13:53;14;17;
65803;PMS5003;65658;63.740;34.316;2022-12-07T04:18:27;28;31;
65803;PMS5003;65658;63.740;34.316;2022-12-07T04:22:29;30;33;
65803;PMS5003;65658;63.740;34.316;2022-12-07T04:26:53;24;25;
65803;PMS5003;65658;63.740;34.316;2022-12-07T04:31:04;29;30;
65803;PMS5003;65658;63.740;34.316;2022-12-07T04:35:04;22;22;
65803;PMS5003;65658;63.740;34.316;2022-12-07T04:39:29;24;25;
65803;PMS5003;65658;63.740;34.316;2022-12-07T04:44:04;28;29;
65803;PMS5003;65658;63.740;34.316;2022-12-07T04:48:28;27;27;
65803;PMS5003;65658;63.740;34.316;2022-12-07T04:53:02;28;30;
65803;PMS5003;65658;63.740;34.316;2022-12-07T04:57:25;18;21;
65803;PMS5003;65658;63.740;34.316;2022-12-07T05:01:27;25;26;
65803;PMS5003;65658;63.740;34.316;2022-12-07T05:05:52;29;32;
65803;PMS5003;65658;63.740;34.316;2022-12-07T05:10:02;25;28;
65803;PMS5003;65658;63.740;34.316;2022-12-07T05:14:04;26;27;
65803;PMS5003;65658;63.740;34.316;2022-12-07T05:18:27;27;31;
65803;PMS5003;65658;63.740;34.316;2022-12-07T05:22:50;23;25;
65803;PMS5003;65658;63.740;34.316;2022-12-07T05:27:24;25;30;
65803;PMS5003;65658;63.740;34.316;2022-12-07T05:31:58;25;27;
65803;PMS5003;65658;63.740;34.316;2022-12-07T05:35:52;25;27;
65803;PMS5003;65658;63.740;34.316;2022-12-07T05:39:51;25;28;
65803;PMS5003;65658;63.740;34.316;2022-12-07T05:44:05;28;29;
65803;PMS5003;65658;63.740;34.316;2022-12-07T05:48:39;32;36;
65803;PMS5003;65658;63.740;34.316;2022-12-07T05:53:03;27;34;
65803;PMS5003;65658;63.740;34.316;2022-12-07T05:57:37;26;27;
65803;PMS5003;65658;63.740;34.316;2022-12-07T06:02:24;28;32;
65803;PMS5003;65658;63.740;34.316;2022-12-07T06:06:48;22;23;
65803;PMS5003;65658;63.740;34.316;2022-12-07T06:10:50;28;28;
65803;PMS5003;65658;63.740;34.316;2022-12-07T06:14:51;25;29;
65803;PMS5003;65658;63.740;34.316;2022-12-07T06:19:06;26;27;
65803;PMS5003;65658;63.740;34.316;2022-12-07T06:23:06;11;11;
65803;PMS5003;65658;63.740;34.316;2022-12-07T06:27:05;30;30;
65803;PMS5003;65658;63.740;34.316;2022-12-07T06:31:17;19;19;
65803;PMS5003;65658;63.740;34.316;2022-12-07T06:35:16;30;30;
65803;PMS5003;65658;63.740;34.316;2022-12-07T06:40:04;22;22;
65803;PMS5003;65658;63.740;34.316;2022-12-07T06:44:49;21;21;
65803;PMS5003;65658;63.740;34.316;2022-12-07T06:49:11;29;34;
65803;PMS5003;65658;63.740;34.316;2022-12-07T06:53:36;27;33;
65803;PMS5003;65658;63.740;34.316;2022-12-07T06:58:00;21;22;
65803;PMS5003;65658;63.740;34.316;2022-12-07T07:03:08;23;25;
65803;PMS5003;65658;63.740;34.316;2022-12-07T07:06:56;30;34;
65803;PMS5003;65658;63.740;34.316;2022-12-07T07:11:31;25;29;
65803;PMS5003;65658;63.740;34.316;2022-12-07T07:18:06;29;30;
65803;PMS5003;65658;63.740;34.316;2022-12-07T07:22:30;26;30;
65803;PMS5003;65658;63.740;34.316;2022-12-07T07:27:28;28;28;
65803;PMS5003;65658;63.740;34.316;2022-12-07T07:31:29;34;35;
65803;PMS5003;65658;63.740;34.316;2022-12-07T07:35:53;34;36;
65803;PMS5003;65658;63.740;34.316;2022-12-07T07:40:15;29;31;
65803;PMS5003;65658;63.740;34.316;2022-12-07T07:44:07;25;26;
65803;PMS5003;65658;63.740;34.316;2022-12-07T07:48:53;24;26;
65803;PMS5003;65658;63.740;34.316;2022-12-07T07:52:47;30;33;
65803;PMS5003;65658;63.740;34.316;2022-12-07T07:56:56;39;47;
65803;PMS5003;65658;63.740;34.316;2022-12-07T08:01:29;28;29;
65803;PMS5003;65658;63.740;34.316;2022-12-07T08:06:15;17;20;
65803;PMS5003;65658;63.740;34.316;2022-12-07T08:10:47;28;32;
65803;PMS5003;65658;63.740;34.316;2022-12-07T08:15:32;7;7;
65803;PMS5003;65658;63.740;34.316;2022-12-07T08:20:19;29;33;
65803;PMS5003;65658;63.740;34.316;2022-12-07T08:24:33;27;33;
65803;PMS5003;65658;63.740;34.316;2022-12-07T08:28:47;28;30;
65803;PMS5003;65658;63.740;34.316;2022-12-07T08:33:44;30;36;
65803;PMS5003;65658;63.740;34.316;2022-12-07T08:38:06;24;27;
65803;PMS5003;65658;63.740;34.316;2022-12-07T08:42:17;30;31;
65803;PMS5003;65658;63.740;34.316;2022-12-07T08:46:46;25;33;
65803;PMS5003;65658;63.740;34.316;2022-12-07T08:51:12;29;31;
65803;PMS5003;65658;63.740;34.316;2022-12-07T08:55:45;27;30;
65803;PMS5003;65658;63.740;34.316;2022-12-07T09:00:29;26;29;
65803;PMS5003;65658;63.740;34.316;2022-12-07T09:04:42;30;30;
65803;PMS5003;65658;63.740;34.316;2022-12-07T09:08:55;30;32;
65803;PMS5003;65658;63.740;34.316;2022-12-07T09:13:08;27;32;
65803;PMS5003;65658;63.740;34.316;2022-12-07T09:17:11;27;35;
65803;PMS5003;65658;63.740;34.316;2022-12-07T09:21:24;31;34;
65803;PMS5003;65658;63.740;34.316;2022-12-07T09:25:27;25;29;
65803;PMS5003;65658;63.740;34.316;2022-12-07T09:29:38;18;19;
65803;PMS5003;65658;63.740;34.316;2022-12-07T09:38:06;30;31;
65803;PMS5003;65658;63.740;34.316;2022-12-07T09:42:39;28;31;
65803;PMS5003;65658;63.740;34.316;2022-12-07T09:46:40;25;29;
65803;PMS5003;65658;63.740;34.316;2022-12-07T09:51:02;25;27;
65803;PMS5003;65658;63.740;34.316;2022-12-07T09:55:08;32;33;
65803;PMS5003;65658;63.740;34.316;2022-12-07T09:59:53;23;24;
65803;PMS5003;65658;63.740;34.316;2022-12-07T10:04:18;30;31;
65803;PMS5003;65658;63.740;34.316;2022-12-07T10:08:30;21;26;
65803;PMS5003;65658;63.740;34.316;2022-12-07T10:16:56;28;31;
65803;PMS5003;65658;63.740;34.316;2022-12-07T10:25:34;27;31;
65803;PMS5003;65658;63.740;34.316;2022-12-07T10:30:12;28;31;
65803;PMS5003;65658;63.740;34.316;2022-12-07T10:34:24;26;27;
65803;PMS5003;65658;63.740;34.316;2022-12-07T10:38:07;26;28;
65803;PMS5003;65658;63.740;34.316;2022-12-07T10:46:58;19;21;
65803;PMS5003;65658;63.740;34.316;2022-12-07T10:55:20;22;26;
65803;PMS5003;65658;63.740;34.316;2022-12-07T10:59:38;23;27;
65803;PMS5003;65658;63.740;34.316;2022-12-07T11:20:33;19;21;
65803;PMS5003;65658;63.740;34.316;2022-12-07T11:32:56;30;34;
65803;PMS5003;65658;63.740;34.316;2022-12-07T11:36:59;30;35;
65803;PMS5003;65658;63.740;34.316;2022-12-07T11:41:51;27;30;
65803;PMS5003;65658;63.740;34.316;2022-12-07T11:45:41;22;25;
65803;PMS5003;65658;63.740;34.316;2022-12-07T11:54:24;29;30;
65803;PMS5003;65658;63.740;34.316;2022-12-07T12:03:11;26;30;
65803;PMS5003;65658;63.740;34.316;2022-12-07T12:07:16;26;30;
65803;PMS5003;65658;63.740;34.316;2022-12-07T12:24:34;29;29;
65803;PMS5003;65658;63.740;34.316;2022-12-07T12:37:18;14;14;
65803;PMS5003;65658;63.740;34.316;2022-12-07T12:45:38;19;19;
65803;PMS5003;65658;63.740;34.316;2022-12-07T12:53:38;26;27;
65803;PMS5003;65658;63.740;34.316;2022-12-07T12:57:39;31;33;
65803;PMS5003;65658;63.740;34.316;2022-12-07T13:01:40;23;23;
65803;PMS5003;65658;63.740;34.316;2022-12-07T13:05:29;24;27;
65803;PMS5003;65658;63.740;34.316;2022-12-07T13:09:42;35;38;
65803;PMS5003;65658;63.740;34.316;2022-12-07T13:26:36;29;32;
65803;PMS5003;65658;63.740;34.316;2022-12-07T13:39:32;19;19;
65803;PMS5003;65658;63.740;34.316;2022-12-07T13:47:59;24;32;
65803;PMS5003;65658;63.740;34.316;2022-12-07T13:52:33;15;21;
65803;PMS5003;65658;63.740;34.316;2022-12-07T13:57:14;44;57;
65803;PMS5003;65658;63.740;34.316;2022-12-07T14:01:38;24;27;
65803;PMS5003;65658;63.740;34.316;2022-12-07T14:05:34;56;71;
65803;PMS5003;65658;63.740;34.316;2022-12-07T14:09:40;77;99;
65803;PMS5003;65658;63.740;34.316;2022-12-07T14:17:49;104;130;
65803;PMS5003;65658;63.740;34.316;2022-12-07T14:21:48;47;59;
65803;PMS5003;65658;63.740;34.316;2022-12-07T14:26:40;52;69;
65803;PMS5003;65658;63.740;34.316;2022-12-07T14:35:25;40;41;
65803;PMS5003;65658;63.740;34.316;2022-12-07T14:39:27;43;56;
65803;PMS5003;65658;63.740;34.316;2022-12-07T14:43:40;42;48;
65803;PMS5003;65658;63.740;34.316;2022-12-07T14:47:50;28;32;
65803;PMS5003;65658;63.740;34.316;2022-12-07T14:52:36;26;29;
65803;PMS5003;65658;63.740;34.316;2022-12-07T14:56:47;23;27;
65803;PMS5003;65658;63.740;34.316;2022-12-07T15:00:51;35;37;
65803;PMS5003;65658;63.740;34.316;2022-12-07T15:05:12;51;60;
65803;PMS5003;65658;63.740;34.316;2022-12-07T15:09:02;46;58;
65803;PMS5003;65658;63.740;34.316;2022-12-07T15:14:25;32;35;
65803;PMS5003;65658;63.740;34.316;2022-12-07T15:18:52;40;47;
65803;PMS5003;65658;63.740;34.316;2022-12-07T15:22:44;46;59;
65803;PMS5003;65658;63.740;34.316;2022-12-07T15:26:46;45;52;
65803;PMS5003;65658;63.740;34.316;2022-12-07T15:31:14;41;49;
65803;PMS5003;65658;63.740;34.316;2022-12-07T15:35:39;27;29;
65803;PMS5003;65658;63.740;34.316;2022-12-07T15:40:16;39;48;
65803;PMS5003;65658;63.740;34.316;2022-12-07T15:45:04;28;35;
65803;PMS5003;65658;63.740;34.316;2022-12-07T15:49:30;33;36;
65803;PMS5003;65658;63.740;34.316;2022-12-07T15:54:42;38;46;
65803;PMS5003;65658;63.740;34.316;2022-12-07T15:59:05;29;31;
65803;PMS5003;65658;63.740;34.316;2022-12-07T16:03:39;26;30;
65803;PMS5003;65658;63.740;34.316;2022-12-07T16:07:51;35;40;
65803;PMS5003;65658;63.740;34.316;2022-12-07T16:11:44;39;44;
65803;PMS5003;65658;63.740;34.316;2022-12-07T16:15:57;35;40;
65803;PMS5003;65658;63.740;34.316;2022-12-07T16:20:10;43;56;
65803;PMS5003;65658;63.740;34.316;2022-12-07T16:24:42;27;29;
65803;PMS5003;65658;63.740;34.316;2022-12-07T16:28:35;53;68;
65803;PMS5003;65658;63.740;34.316;2022-12-07T16:32:59;37;39;
65803;PMS5003;65658;63.740;34.316;2022-12-07T16:37:00;32;38;
65803;PMS5003;65658;63.740;34.316;2022-12-07T16:41:15;49;62;
65803;PMS5003;65658;63.740;34.316;2022-12-07T16:45:07;68;86;
65803;PMS5003;65658;63.740;34.316;2022-12-07T16:49:23;56;73;
65803;PMS5003;65658;63.740;34.316;2022-12-07T16:53:17;149;184;
65803;PMS5003;65658;63.740;34.316;2022-12-07T16:57:10;124;156;
65803;PMS5003;65658;63.740;34.316;2022-12-07T17:05:02;134;168;
65803;PMS5003;65658;63.740;34.316;2022-12-07T17:08:55;171;204;
65803;PMS5003;65658;63.740;34.316;2022-12-07T17:13:11;151;196;
65803;PMS5003;65658;63.740;34.316;2022-12-07T17:17:15;118;143;
65803;PMS5003;65658;63.740;34.316;2022-12-07T17:21:19;179;234;
65803;PMS5003;65658;63.740;34.316;2022-12-07T17:25:23;207;252;
65803;PMS5003;65658;63.740;34.316;2022-12-07T17:29:37;198;264;
65803;PMS5003;65658;63.740;34.316;2022-12-07T17:33:28;240;315;
65803;PMS5003;65658;63.740;34.316;2022-12-07T17:37:43;210;270;
65803;PMS5003;65658;63.740;34.316;2022-12-07T17:41:56;172;224;
65803;PMS5003;65658;63.740;34.316;2022-12-07T17:46:04;196;256;
65803;PMS5003;65658;63.740;34.316;2022-12-07T17:50:28;217;277;
65803;PMS5003;65658;63.740;34.316;2022-12-07T17:54:21;137;177;
65803;PMS5003;65658;63.740;34.316;2022-12-07T17:58:14;92;110;
65803;PMS5003;65658;63.740;34.316;2022-12-07T18:02:08;55;70;
65803;PMS5003;65658;63.740;34.316;2022-12-07T18:06:01;63;81;
65803;PMS5003;65658;63.740;34.316;2022-12-07T18:09:52;43;55;
65803;PMS5003;65658;63.740;34.316;2022-12-07T18:14:08;39;44;
65803;PMS5003;65658;63.740;34.316;2022-12-07T18:18:21;89;114;
65803;PMS5003;65658;63.740;34.316;2022-12-07T18:22:13;59;77;
65803;PMS5003;65658;63.740;34.316;2022-12-07T18:26:06;54;69;
65803;PMS5003;65658;63.740;34.316;2022-12-07T18:29:59;50;65;
65803;PMS5003;65658;63.740;34.316;2022-12-07T18:34:15;28;28;
65803;PMS5003;65658;63.740;34.316;2022-12-07T18:38:30;56;72;
65803;PMS5003;65658;63.740;34.316;2022-12-07T18:42:43;38;42;
65803;PMS5003;65658;63.740;34.316;2022-12-07T18:46:46;59;77;
65803;PMS5003;65658;63.740;34.316;2022-12-07T18:50:47;99;121;
65803;PMS5003;65658;63.740;34.316;2022-12-07T18:54:43;65;83;
65803;PMS5003;65658;63.740;34.316;2022-12-07T18:58:36;89;106;
65803;PMS5003;65658;63.740;34.316;2022-12-07T19:02:30;64;85;
65803;PMS5003;65658;63.740;34.316;2022-12-07T19:06:23;57;72;
65803;PMS5003;65658;63.740;34.316;2022-12-07T19:10:15;53;69;
65803;PMS5003;65658;63.740;34.316;2022-12-07T19:14:32;51;61;
65803;PMS5003;65658;63.740;34.316;2022-12-07T19:18:54;23;29;
65803;PMS5003;65658;63.740;34.316;2022-12-07T19:22:42;20;24;
65803;PMS5003;65658;63.740;34.316;2022-12-07T19:26:28;18;20;
65803;PMS5003;65658;63.740;34.316;2022-12-07T19:30:41;24;25;
65803;PMS5003;65658;63.740;34.316;2022-12-07T19:34:28;19;20;
65803;PMS5003;65658;63.740;34.316;2022-12-07T19:38:28;27;30;
65803;PMS5003;65658;63.740;34.316;2022-12-07T19:42:18;22;24;
65803;PMS5003;65658;63.740;34.316;2022-12-07T19:46:19;29;31;
65803;PMS5003;65658;63.740;34.316;2022-12-07T19:50:20;50;64;
65803;PMS5003;65658;63.740;34.316;2022-12-07T19:54:14;30;31;
65803;PMS5003;65658;63.740;34.316;2022-12-07T19:58:15;39;46;
65803;PMS5003;65658;63.740;34.316;2022-12-07T20:02:30;62;82;
65803;PMS5003;65658;63.740;34.316;2022-12-07T20:06:33;51;61;
65803;PMS5003;65658;63.740;34.316;2022-12-07T20:10:26;98;117;
65803;PMS5003;65658;63.740;34.316;2022-12-07T20:14:21;122;141;
65803;PMS5003;65658;63.740;34.316;2022-12-07T20:18:35;147;188;
65803;PMS5003;65658;63.740;34.316;2022-12-07T20:22:28;150;177;
65803;PMS5003;65658;63.740;34.316;2022-12-07T20:26:20;142;179;
65803;PMS5003;65658;63.740;34.316;2022-12-07T20:30:14;59;79;
65803;PMS5003;65658;63.740;34.316;2022-12-07T20:34:27;61;74;
65803;PMS5003;65658;63.740;34.316;2022-12-07T20:38:20;127;150;
65803;PMS5003;65658;63.740;34.316;2022-12-07T20:42:15;64;83;
65803;PMS5003;65658;63.740;34.316;2022-12-07T20:46:11;190;226;
65803;PMS5003;65658;63.740;34.316;2022-12-07T20:50:16;173;210;
65803;PMS5003;65658;63.740;34.316;2022-12-07T20:54:30;221;269;
65803;PMS5003;65658;63.740;34.316;2022-12-07T20:58:23;173;202;
65803;PMS5003;65658;63.740;34.316;2022-12-07T21:02:27;144;183;
65803;PMS5003;65658;63.740;34.316;2022-12-07T21:06:19;70;93;
65803;PMS5003;65658;63.740;34.316;2022-12-07T21:10:12;92;120;
65803;PMS5003;65658;63.740;34.316;2022-12-07T21:14:17;135;160;
65803;PMS5003;65658;63.740;34.316;2022-12-07T21:18:17;19;20;
65803;PMS5003;65658;63.740;34.316;2022-12-07T21:22:18;7;9;
65803;PMS5003;65658;63.740;34.316;2022-12-07T21:26:21;15;18;
65803;PMS5003;65658;63.740;34.316;2022-12-07T21:30:12;40;48;
65803;PMS5003;65658;63.740;34.316;2022-12-07T21:34:03;5;5;
65803;PMS5003;65658;63.740;34.316;2022-12-07T21:38:01;3;3;
65803;PMS5003;65658;63.740;34.316;2022-12-07T21:41:48;5;5;
65803;PMS5003;65658;63.740;34.316;2022-12-07T21:45:34;5;6;
65803;PMS5003;65658;63.740;34.316;2022-12-07T21:49:32;3;5;
65803;PMS5003;65658;63.740;34.316;2022-12-07T21:53:18;7;7;
65803;PMS5003;65658;63.740;34.316;2022-12-07T21:57:05;5;5;
65803;PMS5003;65658;63.740;34.316;2022-12-07T22:00:52;5;5;
65803;PMS5003;65658;63.740;34.316;2022-12-07T22:04:46;70;92;
65803;PMS5003;65658;63.740;34.316;2022-12-07T22:08:40;28;30;
65803;PMS5003;65658;63.740;34.316;2022-12-07T22:12:31;75;96;
65803;PMS5003;65658;63.740;34.316;2022-12-07T22:16:46;24;24;
65803;PMS5003;65658;63.740;34.316;2022-12-07T22:21:08;35;35;
65803;PMS5003;65658;63.740;34.316;2022-12-07T22:25:32;30;31;
65803;PMS5003;65658;63.740;34.316;2022-12-07T22:29:24;104;112;
65803;PMS5003;65658;63.740;34.316;2022-12-07T22:33:29;81;83;
65803;PMS5003;65658;63.740;34.316;2022-12-07T22:37:21;143;168;
65803;PMS5003;65658;63.740;34.316;2022-12-07T22:41:28;156;183;
65803;PMS5003;65658;63.740;34.316;2022-12-07T22:45:23;135;152;
65803;PMS5003;65658;63.740;34.316;2022-12-07T22:49:17;150;164;
65803;PMS5003;65658;63.740;34.316;2022-12-07T22:53:29;154;184;
65803;PMS5003;65658;63.740;34.316;2022-12-07T22:57:24;129;156;
65803;PMS5003;65658;63.740;34.316;2022-12-07T23:01:18;129;150;
65803;PMS5003;65658;63.740;34.316;2022-12-07T23:05:21;192;224;
65803;PMS5003;65658;63.740;34.316;2022-12-07T23:09:33;166;203;
65803;PMS5003;65658;63.740;34.316;2022-12-07T23:13:27;75;91;
65803;PMS5003;65658;63.740;34.316;2022-12-07T23:17:30;130;155;
65803;PMS5003;65658;63.740;34.316;2022-12-07T23:21:22;139;167;
65803;PMS5003;65658;63.740;34.316;2022-12-07T23:25:15;137;162;
65803;PMS5003;65658;63.740;34.316;2022-12-07T23:29:18;163;197;
65803;PMS5003;65658;63.740;34.316;2022-12-07T23:33:10;115;137;
65803;PMS5003;65658;63.740;34.316;2022-12-07T23:37:03;216;255;
65803;PMS5003;65658;63.740;34.316;2022-12-07T23:40:54;247;296;
65803;PMS5003;65658;63.740;34.316;2022-12-07T23:44:45;179;203;
65803;PMS5003;65658;63.740;34.316;2022-12-07T23:48:39;80;98;
65803;PMS5003;65658;63.740;34.316;2022-12-07T23:52:32;57;78;
65803;PMS5003;65658;63.740;34.316;2022-12-07T23:56:26;60;76;
